ADDS METAR Data INFO
IDs: Format: Raw Decoded Include TAF

Data at: 1958 UTC 15 Dec 2017

KSGH 151956Z AUTO 25013KT 10SM OVC025 M02/M06 A2993 RMK AO2 SLP152 T10171061
KSGH 151856Z AUTO 24016KT 10SM OVC027 M02/M06 A2992 RMK AO2 SNB05E38 SLP150 P0000 T10171061
KSGH 151807Z AUTO 24017G23KT 10SM -SN BKN025 OVC045 M02/M07 A2993 RMK AO2 SNB05 P0000
KSGH 151756Z AUTO 25016G19KT 10SM SCT027 OVC045 M02/M07 A2993 RMK AO2 SLP153 60000 T10171067 11006 21078 58016
KSGH 151656Z AUTO 23015G18KT 10SM FEW036 OVC047 M01/M06 A2994 RMK AO2 SNB01E34 SLP156 P0000 T10061061
KSGH 151556Z AUTO 23009KT 10SM OVC036 M04/M07 A2999 RMK AO2 SLP172 T10391072
KSGH 151456Z AUTO 22010KT 9SM OVC036 M05/M07 A2998 RMK AO2 SLP171 T10501072 56003
KSGH 151356Z AUTO 22007KT 10SM OVC040 M06/M08 A2998 RMK AO2 SLP171 T10611078
KSGH 151256Z AUTO 22005KT 8SM BKN040 M07/M08 A2999 RMK AO2 SLP174 T10721083
KSGH 151156Z AUTO 20003KT 9SM OVC042 M07/M08 A2999 RMK AO2 SLP175 T10721083 11072 21094 56007
KSGH 151056Z AUTO 19003KT 10SM OVC042 M07/M08 A3000 RMK AO2 SLP178 T10721083
KSGH 150956Z AUTO 00000KT 9SM CLR M08/M09 A3001 RMK AO2 SLP180 T10831094
KSGH 150856Z AUTO 16003KT 10SM CLR M08/M09 A3002 RMK AO2 SLP182 T10781089 56009
KSGH 150756Z AUTO 00000KT 9SM CLR M09/M10 A3002 RMK AO2 SLP184 T10891100
KSGH 150656Z AUTO 00000KT 10SM CLR M08/M09 A3003 RMK AO2 SLP186 T10831094
KSGH 150556Z AUTO 00000KT 10SM CLR M09/M11 A3004 RMK AO2 SLP193 T10891106 11067 21089 58009
KSGH 150456Z AUTO 00000KT 10SM CLR M09/M10 A3006 RMK AO2 SLP197 T10891100
KSGH 150356Z AUTO 01003KT 10SM CLR M08/M09 A3007 RMK AO2 SLP201 T10781089 400171083
KSGH 150256Z AUTO 00000KT 10SM CLR M08/M09 A3007 RMK AO2 SLP202 T10781094 53001
KSGH 150156Z AUTO 00000KT 10SM CLR M07/M08 A3005 RMK AO2 SLP195 T10671083
KSGH 150056Z AUTO 00000KT 10SM CLR M07/M09 A3007 RMK AO2 SLP201 T10671089
KSGH 142356Z AUTO 00000KT 10SM CLR M07/M08 A3007 RMK AO2 SLP200 T10671083 11044 21067 51016
KSGH 142256Z AUTO 00000KT 10SM CLR M06/M09 A3006 RMK AO2 SLP198 T10611094
KSGH 142156Z AUTO 00000KT 10SM CLR M06/M09 A3004 RMK AO2 SLP190 T10561089
KSGH 142056Z AUTO 00000KT 10SM FEW019 M05/M09 A3002 RMK AO2 SLP182 T10501089 53000
KSGH 142048Z AUTO 00000KT 10SM SCT019 M05/M09 A3002 RMK AO2
KSGH 141956Z AUTO 01004KT 10SM OVC017 M05/M09 A3002 RMK AO2 SLP180 T10501089
KSGH 141856Z AUTO 34005KT 10SM OVC017 M06/M09 A3002 RMK AO2 SLP181 T10561094
KSGH 141756Z AUTO 33004KT 10SM OVC019 M06/M09 A3002 RMK AO2 SLP181 60000 T10561089 11056 21061 50012
KSGH 141656Z AUTO 04004KT 10SM OVC017 M06/M09 A3002 RMK AO2 SNE21 SLP181 P0000 T10561094
KSGH 141556Z AUTO 35010KT 9SM -SN OVC015 M06/M09 A3001 RMK AO2 SLP177 P0000 T10561089
KSGH 141456Z AUTO 35006KT 9SM -SN OVC015 M06/M09 A2998 RMK AO2 SLP168 P0000 60000 T10611089 51033
KSGH 141356Z AUTO 01007KT 9SM -SN OVC015 M06/M09 A2997 RMK AO2 SNB25 SLP162 P0000 T10611089
KSGH 141256Z AUTO 33009KT 10SM OVC015 M06/M09 A2993 RMK AO2 SLP151 T10611089
KSGH 141156Z AUTO 34007KT 10SM OVC015 M06/M08 A2988 RMK AO2 SLP134 60000 T10611083 10000 21061 51034
KSGH 141056Z AUTO 34013KT 10SM OVC013 M06/M08 A2985 RMK AO2 PRESRR SLP121 T10561083
KSGH 141053Z AUTO 34014KT 10SM OVC013 M06/M08 A2985 RMK AO2 PRESRR
KSGH 140956Z AUTO 33014KT 10SM OVC019 M05/M08 A2978 RMK AO2 PK WND 33026/0932 SLP099 T10501078
KSGH 140856Z AUTO 33017G24KT 10SM BKN023 BKN028 OVC036 M03/M07 A2974 RMK AO2 PK WND 31027/0815 SNE27 SLP083 P0000 60000 T10281072 51060